Time;durP1;ratioP1;P1;durP2;ratioP2;P2;SDS_P1;SDS_P2;PMS_P1;PMS_P2;Temp;Humidity;BMP_temperature;BMP_pressure;BME280_temperature;BME280_humidity;BME280_pressure;Samples;Min_cycle;Max_cycle;Signal;HPM_P1;HPM_P2
2023/03/31 00:02:20;;;;;;;7.00;1.23;;;10.30;99.90;;;;;;7280834;32;20233;-55
2023/03/31 00:06:22;;;;;;;7.72;1.45;;;10.20;99.90;;;;;;7279116;32;20202;-55
2023/03/31 00:10:24;;;;;;;7.07;1.60;;;10.10;99.90;;;;;;7277488;32;20716;-55
2023/03/31 00:14:26;;;;;;;7.40;1.52;;;10.10;99.90;;;;;;7278414;32;20104;-55
2023/03/31 00:18:28;;;;;;;7.72;1.50;;;10.10;99.90;;;;;;7281331;32;20157;-55
2023/03/31 00:22:30;;;;;;;7.80;1.42;;;10.30;99.90;;;;;;7281182;32;20191;-55
2023/03/31 00:26:34;;;;;;;6.65;1.10;;;10.30;99.90;;;;;;7276550;32;20179;-55
2023/03/31 00:30:36;;;;;;;4.90;1.15;;;10.40;99.90;;;;;;7281654;32;20247;-55
2023/03/31 00:34:37;;;;;;;6.70;1.15;;;10.50;99.90;;;;;;7282612;32;20468;-55
2023/03/31 00:38:39;;;;;;;8.05;1.10;;;10.60;99.90;;;;;;7278336;32;20124;-55
2023/03/31 00:42:42;;;;;;;6.35;1.20;;;10.60;99.90;;;;;;7263027;32;20237;-55
2023/03/31 00:46:55;;;;;;;9.63;1.60;;;10.60;99.90;;;;;;7274717;32;20123;-55
2023/03/31 00:50:59;;;;;;;4.55;1.37;;;10.70;99.90;;;;;;7276926;32;20185;-55
2023/03/31 00:55:08;;;;;;;6.75;1.25;;;10.80;99.90;;;;;;7280744;32;20134;-55
2023/03/31 00:59:12;;;;;;;4.37;1.17;;;10.70;99.90;;;;;;7277312;32;20100;-57
2023/03/31 01:03:14;;;;;;;7.65;1.40;;;10.70;99.90;;;;;;7279695;32;20282;-55
2023/03/31 01:07:36;;;;;;;6.82;1.33;;;10.70;99.90;;;;;;7283548;32;20529;-55
2023/03/31 01:11:39;;;;;;;6.78;2.00;;;10.60;99.90;;;;;;7278489;32;20711;-55
2023/03/31 01:15:41;;;;;;;6.20;1.65;;;10.60;99.90;;;;;;7277405;32;20356;-55
2023/03/31 01:20:13;;;;;;;7.28;1.10;;;10.60;99.90;;;;;;7278080;32;20305;-55
2023/03/31 01:24:27;;;;;;;9.82;1.27;;;10.50;99.90;;;;;;7284371;32;20123;-55
2023/03/31 01:28:44;;;;;;;4.10;1.45;;;10.50;99.90;;;;;;7282207;32;20104;-54
2023/03/31 01:33:05;;;;;;;6.25;1.45;;;10.40;99.90;;;;;;7270234;32;20139;-55
2023/03/31 01:37:36;;;;;;;8.25;1.27;;;10.40;99.90;;;;;;7287682;32;20708;-55
2023/03/31 01:41:44;;;;;;;11.10;1.75;;;10.30;99.90;;;;;;7281554;32;20132;-54
2023/03/31 01:46:00;;;;;;;7.15;1.25;;;10.30;99.90;;;;;;7287740;32;20471;-56
2023/03/31 01:50:12;;;;;;;6.53;1.20;;;10.20;99.90;;;;;;7275624;32;20612;-55
2023/03/31 01:54:38;;;;;;;9.23;1.37;;;10.30;99.90;;;;;;7280434;32;20121;-54
2023/03/31 01:58:45;;;;;;;8.80;1.48;;;10.40;99.90;;;;;;7280359;32;20119;-55
2023/03/31 02:03:01;;;;;;;5.62;1.30;;;10.30;99.90;;;;;;7280801;32;20467;-55
2023/03/31 02:07:10;;;;;;;7.43;1.55;;;10.30;99.90;;;;;;7272497;32;20096;-55
2023/03/31 02:11:13;;;;;;;7.95;1.37;;;10.20;99.90;;;;;;7278181;32;20191;-55
2023/03/31 02:15:22;;;;;;;11.38;1.20;;;10.30;99.90;;;;;;7284461;32;20124;-55
2023/03/31 02:19:28;;;;;;;7.85;1.37;;;10.20;99.90;;;;;;7271142;32;20517;-54
2023/03/31 02:23:31;;;;;;;8.00;1.50;;;10.30;99.90;;;;;;7284536;32;20130;-55
2023/03/31 02:27:42;;;;;;;6.85;1.25;;;10.30;99.90;;;;;;7282973;32;20120;-54
2023/03/31 02:31:51;;;;;;;11.30;1.77;;;10.40;99.90;;;;;;7278267;32;20147;-55
2023/03/31 02:35:53;;;;;;;8.30;1.92;;;10.30;99.90;;;;;;7281321;32;20562;-54
2023/03/31 02:39:59;;;;;;;8.77;2.00;;;10.30;99.90;;;;;;7284773;32;20100;-54
2023/03/31 02:44:01;;;;;;;13.23;2.20;;;10.30;99.90;;;;;;7278388;32;20096;-54
2023/03/31 02:48:05;;;;;;;9.45;1.52;;;10.30;99.90;;;;;;7275839;32;20487;-55
2023/03/31 02:52:19;;;;;;;11.55;2.00;;;10.30;99.90;;;;;;7271505;32;20660;-55
2023/03/31 02:56:38;;;;;;;13.35;1.92;;;10.30;99.90;;;;;;7276206;32;20164;-55
2023/03/31 03:01:05;;;;;;;11.52;2.22;;;10.20;99.90;;;;;;7281330;32;20463;-55
2023/03/31 03:05:33;;;;;;;17.02;2.00;;;10.20;99.90;;;;;;7285881;32;20134;-55
2023/03/31 03:10:01;;;;;;;9.82;1.90;;;10.30;99.90;;;;;;7282400;32;20238;-55
2023/03/31 03:14:26;;;;;;;12.88;2.30;;;10.20;99.90;;;;;;7279992;32;20206;-56
2023/03/31 03:18:28;;;;;;;10.25;2.20;;;10.10;99.90;;;;;;7277809;32;20797;-55
2023/03/31 03:22:30;;;;;;;11.30;2.00;;;10.10;99.90;;;;;;7279215;32;20183;-55
2023/03/31 03:26:34;;;;;;;11.48;1.95;;;10.10;99.90;;;;;;7274793;32;20214;-55
2023/03/31 03:30:36;;;;;;;8.60;1.50;;;10.10;99.90;;;;;;7266262;32;20467;-56
2023/03/31 03:34:37;;;;;;;10.85;1.95;;;10.00;99.90;;;;;;7280115;32;20250;-55
2023/03/31 03:38:39;;;;;;;12.40;2.20;;;9.90;99.90;;;;;;7277112;32;20256;-55
2023/03/31 03:42:41;;;;;;;8.77;1.55;;;10.00;99.90;;;;;;7275939;32;20265;-56
2023/03/31 03:46:43;;;;;;;11.18;1.87;;;10.00;99.90;;;;;;7285303;32;20112;-55
2023/03/31 03:50:46;;;;;;;9.40;1.98;;;10.00;99.90;;;;;;7278876;32;20157;-55
2023/03/31 03:54:48;;;;;;;8.02;1.55;;;10.10;99.90;;;;;;7274203;32;20116;-55
2023/03/31 03:58:49;;;;;;;9.43;2.00;;;10.10;99.90;;;;;;7275198;32;20147;-55
2023/03/31 04:02:51;;;;;;;10.35;1.85;;;10.10;99.90;;;;;;7278168;32;20739;-55
2023/03/31 04:06:53;;;;;;;8.80;1.55;;;10.10;99.90;;;;;;7273983;32;20407;-55
2023/03/31 04:10:54;;;;;;;10.65;1.73;;;10.00;99.90;;;;;;7276048;32;20159;-55
2023/03/31 04:14:56;;;;;;;8.35;1.48;;;10.00;99.90;;;;;;7275313;32;20674;-55
2023/03/31 04:18:58;;;;;;;10.68;2.62;;;10.00;99.90;;;;;;7272552;32;20232;-56
2023/03/31 04:23:01;;;;;;;10.60;2.20;;;10.00;99.90;;;;;;7281354;32;20126;-55
2023/03/31 04:27:06;;;;;;;12.30;2.58;;;10.10;99.90;;;;;;7262987;32;21907;-55
2023/03/31 04:31:14;;;;;;;13.07;2.55;;;10.10;99.90;;;;;;7278736;32;20122;-55
2023/03/31 04:35:20;;;;;;;15.00;3.08;;;10.10;99.90;;;;;;7277749;32;20112;-56
2023/03/31 04:39:25;;;;;;;9.63;1.90;;;10.10;99.90;;;;;;7278126;32;20246;-55
2023/03/31 04:43:27;;;;;;;9.05;1.90;;;10.10;99.90;;;;;;7277320;32;20167;-55
2023/03/31 04:47:29;;;;;;;7.22;1.50;;;10.10;99.90;;;;;;7275211;32;20150;-55
2023/03/31 04:51:31;;;;;;;6.90;1.98;;;10.10;99.90;;;;;;7276560;32;20103;-55
2023/03/31 04:55:33;;;;;;;9.15;1.52;;;10.10;99.90;;;;;;7277213;32;20126;-55
2023/03/31 04:59:35;;;;;;;7.70;2.05;;;10.00;99.90;;;;;;7276996;32;20231;-55
2023/03/31 05:03:37;;;;;;;7.65;1.85;;;10.00;99.90;;;;;;7282005;32;20241;-55
2023/03/31 05:07:39;;;;;;;5.07;1.65;;;9.90;99.90;;;;;;7274559;32;20108;-56
2023/03/31 05:11:40;;;;;;;9.00;1.75;;;9.90;99.90;;;;;;7279927;32;20998;-55
2023/03/31 05:15:44;;;;;;;9.02;1.80;;;9.90;99.90;;;;;;7272829;32;20124;-56
2023/03/31 05:19:45;;;;;;;8.95;2.28;;;9.90;99.90;;;;;;7271343;32;20138;-57
2023/03/31 05:23:47;;;;;;;7.62;1.50;;;9.80;99.90;;;;;;7258493;32;20238;-57
2023/03/31 05:27:49;;;;;;;8.40;2.45;;;9.90;99.90;;;;;;7273988;32;20625;-57
2023/03/31 05:31:55;;;;;;;9.63;1.98;;;9.90;99.90;;;;;;7278728;32;20687;-56
2023/03/31 05:35:59;;;;;;;10.80;1.75;;;9.90;99.90;;;;;;7279745;32;20150;-57
2023/03/31 05:40:03;;;;;;;8.05;1.60;;;9.90;99.90;;;;;;7273805;32;20150;-56
2023/03/31 05:44:05;;;;;;;7.97;1.65;;;10.00;99.90;;;;;;7274593;32;20196;-57
2023/03/31 05:48:06;;;;;;;8.52;1.65;;;9.90;99.90;;;;;;7272331;32;20133;-58
2023/03/31 05:52:09;;;;;;;11.32;1.48;;;10.00;99.90;;;;;;7263590;32;20112;-57
2023/03/31 05:56:12;;;;;;;5.95;1.35;;;9.90;99.90;;;;;;7270802;32;20598;-57
2023/03/31 06:00:14;;;;;;;7.62;1.27;;;10.00;99.90;;;;;;7275368;32;20285;-58
2023/03/31 06:04:16;;;;;;;8.82;1.25;;;10.00;99.90;;;;;;7273563;32;20622;-57
2023/03/31 06:08:18;;;;;;;7.03;1.35;;;10.00;99.90;;;;;;7283013;32;20241;-57
2023/03/31 06:12:20;;;;;;;7.28;1.80;;;10.00;99.90;;;;;;7269968;32;20127;-57
2023/03/31 06:16:21;;;;;;;7.07;1.50;;;9.90;99.90;;;;;;7280307;32;20211;-57
2023/03/31 06:20:23;;;;;;;6.05;1.58;;;10.00;99.90;;;;;;7279520;32;20186;-57
2023/03/31 06:24:29;;;;;;;3.95;1.50;;;9.90;99.90;;;;;;7277927;32;20112;-58
2023/03/31 06:28:31;;;;;;;6.10;1.48;;;9.80;99.90;;;;;;7276916;32;20140;-57
2023/03/31 06:32:33;;;;;;;8.73;1.52;;;9.80;99.90;;;;;;7273892;32;20154;-58
2023/03/31 06:36:35;;;;;;;6.90;2.00;;;9.90;99.90;;;;;;7266733;32;20150;-57
2023/03/31 06:40:36;;;;;;;4.85;1.30;;;9.80;99.90;;;;;;7277987;32;20101;-57
2023/03/31 06:44:38;;;;;;;5.00;1.50;;;9.80;99.90;;;;;;7287480;32;20330;-57
2023/03/31 06:48:40;;;;;;;10.80;1.85;;;9.80;99.90;;;;;;7276075;32;20285;-58
2023/03/31 06:52:42;;;;;;;8.10;1.77;;;9.70;99.90;;;;;;7286682;32;20614;-58
2023/03/31 06:56:44;;;;;;;7.15;1.45;;;9.70;99.90;;;;;;7275502;32;20150;-57
2023/03/31 07:00:46;;;;;;;5.45;1.48;;;9.70;99.90;;;;;;7272140;32;20351;-57
2023/03/31 07:04:48;;;;;;;7.60;1.55;;;9.70;99.90;;;;;;7277015;32;20179;-57
2023/03/31 07:08:49;;;;;;;5.25;1.30;;;9.70;99.90;;;;;;7280760;32;20124;-57
2023/03/31 07:12:52;;;;;;;8.48;1.87;;;9.80;99.90;;;;;;7279715;32;20132;-57
2023/03/31 07:16:53;;;;;;;5.70;1.75;;;9.70;99.90;;;;;;7279988;32;20761;-56
2023/03/31 07:20:55;;;;;;;6.80;1.30;;;9.70;99.90;;;;;;7281713;32;20104;-58
2023/03/31 07:24:57;;;;;;;7.00;1.73;;;9.70;99.90;;;;;;7280576;32;20493;-57
2023/03/31 07:28:59;;;;;;;5.05;1.50;;;9.70;99.90;;;;;;7278846;32;20463;-57
2023/03/31 07:33:01;;;;;;;6.72;1.45;;;9.80;99.90;;;;;;7280656;32;20163;-56
2023/03/31 07:37:03;;;;;;;3.80;1.20;;;9.90;99.90;;;;;;7276031;32;20349;-57
2023/03/31 07:41:08;;;;;;;8.65;1.08;;;10.00;99.90;;;;;;7280444;32;20518;-57
2023/03/31 07:45:10;;;;;;;3.67;0.88;;;10.20;99.90;;;;;;7280601;32;20136;-56
2023/03/31 07:49:14;;;;;;;3.22;0.93;;;10.30;99.90;;;;;;7282243;32;20222;-57
2023/03/31 07:53:16;;;;;;;3.37;1.00;;;10.30;99.90;;;;;;7281673;32;20123;-58
2023/03/31 07:57:18;;;;;;;3.42;0.80;;;10.40;99.90;;;;;;7275008;32;20344;-57
2023/03/31 08:01:24;;;;;;;5.22;1.12;;;10.50;99.90;;;;;;7278658;32;20141;-57
2023/03/31 08:05:26;;;;;;;3.65;0.68;;;10.60;99.90;;;;;;7281805;32;20112;-57
2023/03/31 08:09:28;;;;;;;3.35;0.82;;;10.70;99.90;;;;;;7278198;32;20099;-56
2023/03/31 08:13:30;;;;;;;3.70;0.80;;;10.70;99.90;;;;;;7268239;32;20161;-55
2023/03/31 08:17:32;;;;;;;4.57;1.00;;;10.70;99.90;;;;;;7274382;32;20150;-56
2023/03/31 08:21:33;;;;;;;5.65;1.17;;;10.60;99.90;;;;;;7279198;32;20207;-56
2023/03/31 08:25:36;;;;;;;4.97;1.00;;;10.60;99.90;;;;;;7277420;32;20108;-57
2023/03/31 08:29:37;;;;;;;3.08;0.90;;;10.60;99.90;;;;;;7280736;32;20582;-56
2023/03/31 08:33:39;;;;;;;5.10;0.90;;;10.50;99.90;;;;;;7259990;32;20223;-55
2023/03/31 08:37:41;;;;;;;3.92;0.90;;;10.50;99.90;;;;;;7279307;32;20310;-55
2023/03/31 08:42:14;;;;;;;3.97;0.80;;;10.50;99.90;;;;;;7275288;32;20532;-55
2023/03/31 08:46:18;;;;;;;2.22;0.70;;;10.70;99.90;;;;;;7280564;32;20092;-55
2023/03/31 08:50:24;;;;;;;4.85;0.85;;;11.00;99.90;;;;;;7270402;32;20096;-56
2023/03/31 08:54:37;;;;;;;6.65;1.15;;;11.20;99.90;;;;;;7279400;32;20773;-56
2023/03/31 08:58:42;;;;;;;4.57;0.90;;;11.40;99.90;;;;;;7284746;32;20112;-56
2023/03/31 09:02:59;;;;;;;4.87;1.08;;;11.70;99.90;;;;;;7283921;32;20258;-56
2023/03/31 09:07:19;;;;;;;7.05;1.10;;;12.20;99.90;;;;;;7275776;32;20128;-56
2023/03/31 09:11:23;;;;;;;4.60;1.15;;;12.70;99.90;;;;;;7278452;32;20157;-57
2023/03/31 09:15:45;;;;;;;7.68;1.27;;;13.00;99.90;;;;;;7272607;32;20327;-57
2023/03/31 09:19:52;;;;;;;8.82;1.62;;;12.90;99.90;;;;;;7271008;32;20118;-57
2023/03/31 09:24:16;;;;;;;8.50;2.08;;;12.90;99.90;;;;;;7279007;32;20191;-56
2023/03/31 09:28:35;;;;;;;10.52;1.70;;;12.80;99.90;;;;;;7259786;32;20119;-56
2023/03/31 09:32:38;;;;;;;10.40;1.70;;;12.60;99.90;;;;;;7277845;32;20175;-56
2023/03/31 09:36:41;;;;;;;11.50;2.15;;;12.40;99.90;;;;;;7273079;32;20124;-56
2023/03/31 09:40:43;;;;;;;7.07;1.58;;;12.40;99.90;;;;;;7282255;32;20152;-56
2023/03/31 09:44:48;;;;;;;12.10;2.08;;;12.50;99.90;;;;;;7261790;32;20285;-57
2023/03/31 09:49:11;;;;;;;11.77;1.90;;;12.60;99.90;;;;;;7270153;32;20275;-57
2023/03/31 09:53:26;;;;;;;10.15;1.77;;;12.90;99.90;;;;;;7281518;32;20573;-56
2023/03/31 09:57:32;;;;;;;13.82;2.60;;;13.30;99.90;;;;;;7269926;32;20180;-56
2023/03/31 10:01:35;;;;;;;9.30;1.90;;;13.60;99.90;;;;;;7270370;32;20116;-56
2023/03/31 10:05:47;;;;;;;12.30;1.73;;;14.10;99.90;;;;;;7274617;32;20472;-55
2023/03/31 10:09:49;;;;;;;10.15;1.77;;;13.80;99.90;;;;;;7271072;32;20126;-56
2023/03/31 10:14:00;;;;;;;10.90;1.98;;;13.30;99.90;;;;;;7283469;32;20503;-56
2023/03/31 10:18:02;;;;;;;10.55;2.20;;;12.80;99.90;;;;;;7275499;32;20123;-56
2023/03/31 10:22:13;;;;;;;12.50;1.90;;;12.80;99.90;;;;;;7286399;32;20187;-55
2023/03/31 10:26:20;;;;;;;7.57;1.67;;;13.60;99.90;;;;;;7274311;32;20182;-57
2023/03/31 10:30:27;;;;;;;8.80;1.58;;;16.10;99.90;;;;;;7272837;32;20637;-56
2023/03/31 10:34:30;;;;;;;10.27;1.98;;;18.30;99.90;;;;;;7276328;32;20104;-56
2023/03/31 10:38:39;;;;;;;10.63;1.85;;;18.30;99.90;;;;;;7262128;32;20231;-56
2023/03/31 10:42:45;;;;;;;12.55;2.12;;;17.40;99.90;;;;;;7276270;32;20180;-56
2023/03/31 10:46:51;;;;;;;9.30;1.77;;;16.40;99.90;;;;;;7271912;32;20171;-56
2023/03/31 10:50:57;;;;;;;11.52;2.20;;;15.90;99.90;;;;;;7279561;32;20103;-56
2023/03/31 10:55:00;;;;;;;8.27;1.70;;;15.70;99.90;;;;;;7285753;32;20169;-56
2023/03/31 10:59:22;;;;;;;11.05;1.92;;;15.40;99.90;;;;;;7267682;32;20099;-55
2023/03/31 11:04:01;;;;;;;9.13;1.48;;;14.60;99.90;;;;;;7283293;32;20134;-55
2023/03/31 11:08:15;;;;;;;7.07;1.17;;;13.50;99.90;;;;;;7260442;32;20138;-55
2023/03/31 11:12:30;;;;;;;4.93;0.87;;;12.00;99.90;;;;;;7285400;32;20169;-56
2023/03/31 11:16:59;;;;;;;9.45;1.25;;;11.50;99.90;;;;;;7273045;32;21308;-56
2023/03/31 11:21:35;;;;;;;2.62;0.93;;;11.20;99.90;;;;;;7273949;32;20104;-56
2023/03/31 11:26:06;;;;;;;6.43;1.30;;;11.30;99.90;;;;;;7273691;32;20127;-54
2023/03/31 11:30:33;;;;;;;9.50;1.12;;;11.50;99.90;;;;;;7266372;32;20123;-56
2023/03/31 11:34:43;;;;;;;10.03;1.33;;;11.70;99.90;;;;;;7277107;32;20891;-56
2023/03/31 11:38:59;;;;;;;5.20;0.95;;;11.90;99.90;;;;;;7290835;32;20162;-56
2023/03/31 11:43:10;;;;;;;5.32;1.20;;;12.10;99.90;;;;;;7274478;32;20154;-56
2023/03/31 11:47:18;;;;;;;5.45;1.00;;;12.50;99.90;;;;;;7275558;32;20198;-57
2023/03/31 11:51:25;;;;;;;4.53;0.85;;;12.70;99.90;;;;;;7273117;32;20252;-56
2023/03/31 11:55:30;;;;;;;5.62;1.00;;;12.70;99.90;;;;;;7290232;32;20245;-56
2023/03/31 11:59:33;;;;;;;5.10;1.00;;;12.70;99.90;;;;;;7275071;32;20133;-56
2023/03/31 12:03:54;;;;;;;9.32;1.50;;;12.80;99.90;;;;;;7283333;32;20313;-56
2023/03/31 12:08:09;;;;;;;6.12;1.30;;;13.00;99.90;;;;;;7276502;32;20149;-57
2023/03/31 12:12:26;;;;;;;8.35;0.98;;;13.30;99.90;;;;;;7281218;32;20238;-56
2023/03/31 12:16:58;;;;;;;7.82;1.40;;;13.40;99.90;;;;;;7282735;32;20112;-56
2023/03/31 12:21:03;;;;;;;10.50;1.45;;;13.30;99.90;;;;;;7258817;32;20588;-57
2023/03/31 12:25:10;;;;;;;9.07;1.70;;;13.20;99.90;;;;;;7277024;32;20313;-56
2023/03/31 12:29:15;;;;;;;;;;;13.00;99.90;;;;;;7272765;32;20119;-56
2023/03/31 12:33:36;;;;;;;10.50;1.60;;;12.70;99.90;;;;;;7276945;32;20072;-62
2023/03/31 12:37:50;;;;;;;9.23;1.50;;;12.70;99.90;;;;;;7274461;32;20176;-63
2023/03/31 12:42:19;;;;;;;12.07;1.90;;;12.90;99.90;;;;;;7279329;32;20684;-56
2023/03/31 12:46:31;;;;;;;10.57;1.98;;;13.10;99.90;;;;;;7277318;32;20774;-57
2023/03/31 12:50:49;;;;;;;14.93;1.80;;;13.10;99.90;;;;;;7276216;32;20292;-57
2023/03/31 12:55:15;;;;;;;14.07;2.17;;;13.40;99.90;;;;;;7278325;32;20100;-57
2023/03/31 12:59:32;;;;;;;10.18;2.28;;;13.50;99.90;;;;;;7276183;32;20892;-57
2023/03/31 13:03:48;;;;;;;10.05;1.77;;;13.90;99.90;;;;;;7265250;32;20111;-56
2023/03/31 13:07:49;;;;;;;10.00;1.90;;;14.10;99.90;;;;;;7275735;32;20238;-57
2023/03/31 13:11:51;;;;;;;11.23;1.87;;;14.20;99.90;;;;;;7285672;32;20149;-56
2023/03/31 13:15:55;;;;;;;6.80;1.40;;;14.00;99.90;;;;;;7273353;32;20111;-56
2023/03/31 13:20:27;;;;;;;12.65;2.20;;;13.70;99.90;;;;;;7275786;32;20649;-56
2023/03/31 13:24:31;;;;;;;9.88;1.58;;;13.60;99.90;;;;;;7271690;32;20513;-55
2023/03/31 13:28:44;;;;;;;7.45;1.52;;;13.90;99.90;;;;;;7274686;32;20124;-56
2023/03/31 13:33:13;;;;;;;9.20;1.50;;;14.40;99.90;;;;;;7282224;32;20159;-55
2023/03/31 13:37:35;;;;;;;5.65;1.35;;;14.70;99.90;;;;;;7275894;32;20912;-56
2023/03/31 13:41:58;;;;;;;4.72;1.60;;;14.90;99.90;;;;;;7264069;32;20135;-56
2023/03/31 13:46:26;;;;;;;8.23;1.10;;;14.70;99.90;;;;;;7278070;32;20228;-56
2023/03/31 13:50:48;;;;;;;5.82;1.10;;;14.40;99.90;;;;;;7259638;32;20112;-57
2023/03/31 13:55:15;;;;;;;5.90;1.15;;;14.10;99.90;;;;;;7272181;32;20485;-56
2023/03/31 13:59:27;;;;;;;3.67;1.30;;;14.20;99.90;;;;;;7275302;32;20181;-56
2023/03/31 14:03:47;;;;;;;6.32;1.20;;;14.60;99.90;;;;;;7273467;32;20271;-56
2023/03/31 14:07:54;;;;;;;8.13;1.27;;;14.60;99.90;;;;;;7280302;32;21051;-57
2023/03/31 14:12:17;;;;;;;6.12;1.17;;;14.70;99.90;;;;;;7265476;32;20210;-57
2023/03/31 14:16:20;;;;;;;6.32;1.20;;;14.70;99.90;;;;;;7276758;32;20135;-56
2023/03/31 14:20:39;;;;;;;7.72;1.23;;;14.60;99.90;;;;;;7275112;32;20127;-55
2023/03/31 14:24:56;;;;;;;6.78;1.02;;;14.50;99.90;;;;;;7281748;32;20135;-60
2023/03/31 14:29:27;;;;;;;5.27;0.83;;;14.50;99.90;;;;;;7269086;32;20122;-60
2023/03/31 14:33:41;;;;;;;4.40;0.88;;;14.50;99.90;;;;;;7278353;32;20450;-56
2023/03/31 14:37:44;;;;;;;6.18;1.05;;;14.50;99.90;;;;;;7276498;32;20183;-56
2023/03/31 14:41:52;;;;;;;4.22;0.80;;;14.10;99.90;;;;;;7275342;32;20116;-56
2023/03/31 14:46:01;;;;;;;5.57;0.90;;;14.00;99.90;;;;;;7278543;32;20104;-56
2023/03/31 14:50:15;;;;;;;5.00;1.08;;;14.00;99.90;;;;;;7280529;32;20115;-55
2023/03/31 14:54:19;;;;;;;4.47;1.00;;;14.00;99.90;;;;;;7278075;32;20252;-56
2023/03/31 14:58:28;;;;;;;5.03;0.90;;;14.00;99.90;;;;;;7278883;32;20253;-55
2023/03/31 15:02:41;;;;;;;9.77;1.60;;;13.30;99.90;;;;;;7279652;32;20154;-55
2023/03/31 15:06:47;;;;;;;10.95;1.35;;;12.90;99.90;;;;;;7279791;32;20108;-56
2023/03/31 15:10:53;;;;;;;8.23;1.10;;;12.60;99.90;;;;;;7284301;32;20130;-56
2023/03/31 15:15:07;;;;;;;5.55;1.02;;;12.60;99.90;;;;;;7285278;32;20242;-56
2023/03/31 15:19:20;;;;;;;7.62;1.60;;;12.30;99.90;;;;;;7268211;32;20140;-56
2023/03/31 15:23:26;;;;;;;8.15;1.90;;;11.80;99.90;;;;;;7277077;32;20191;-56
2023/03/31 15:27:39;;;;;;;8.25;1.58;;;11.50;99.90;;;;;;7284803;32;20211;-56
2023/03/31 15:31:41;;;;;;;11.25;1.62;;;11.50;99.90;;;;;;7280248;32;20120;-56
2023/03/31 15:35:44;;;;;;;11.50;1.45;;;11.50;99.90;;;;;;7286342;32;20128;-56
2023/03/31 15:39:47;;;;;;;8.07;1.50;;;11.50;99.90;;;;;;7276632;32;20108;-57
2023/03/31 15:44:04;;;;;;;7.22;1.33;;;11.50;99.90;;;;;;7265126;32;20312;-57
2023/03/31 15:48:23;;;;;;;10.60;2.03;;;11.50;99.90;;;;;;7277088;32;20482;-56
2023/03/31 15:52:33;;;;;;;8.48;1.37;;;11.70;99.90;;;;;;7284131;32;20248;-57
2023/03/31 15:56:44;;;;;;;4.28;1.10;;;11.70;99.90;;;;;;7284331;32;20112;-56
2023/03/31 16:00:51;;;;;;;7.15;1.37;;;11.70;99.90;;;;;;7284877;32;20112;-56
2023/03/31 16:04:58;;;;;;;9.63;1.35;;;11.60;99.90;;;;;;7271594;32;20103;-56
2023/03/31 16:09:07;;;;;;;3.28;0.77;;;11.60;99.90;;;;;;7276339;32;20108;-56
2023/03/31 16:13:11;;;;;;;5.60;0.88;;;11.60;99.90;;;;;;7278052;32;20146;-56
2023/03/31 16:17:22;;;;;;;5.10;0.77;;;11.70;99.90;;;;;;7277418;32;20119;-56
2023/03/31 16:21:28;;;;;;;3.78;0.90;;;11.70;99.90;;;;;;7280924;32;21127;-56
2023/03/31 16:25:31;;;;;;;5.62;1.25;;;11.80;99.90;;;;;;7286197;32;20563;-57
2023/03/31 16:29:35;;;;;;;3.75;0.90;;;11.80;99.90;;;;;;7276237;32;20585;-56
2023/03/31 16:33:55;;;;;;;5.85;1.12;;;11.80;99.90;;;;;;7268062;32;20182;-56
2023/03/31 16:37:57;;;;;;;6.07;0.90;;;11.70;99.90;;;;;;7278780;32;20306;-56
2023/03/31 16:41:59;;;;;;;5.25;1.17;;;11.70;99.90;;;;;;7270799;32;20104;-56
2023/03/31 16:46:02;;;;;;;7.97;4.00;;;11.70;99.90;;;;;;7281802;32;20119;-56
2023/03/31 16:50:06;;;;;;;3.95;0.70;;;11.70;99.90;;;;;;7274224;32;20160;-56
2023/03/31 16:54:08;;;;;;;3.25;0.70;;;11.70;99.90;;;;;;7278772;32;20294;-56
2023/03/31 16:58:10;;;;;;;6.40;1.10;;;11.60;99.90;;;;;;7285294;32;20253;-56
2023/03/31 17:02:12;;;;;;;4.60;0.90;;;11.60;99.90;;;;;;7275234;32;20239;-55
2023/03/31 17:06:14;;;;;;;4.35;0.90;;;11.50;99.90;;;;;;7278108;32;20121;-56
2023/03/31 17:10:16;;;;;;;2.28;0.57;;;11.40;99.90;;;;;;7280831;32;20676;-56
2023/03/31 17:14:18;;;;;;;3.72;0.50;;;11.20;99.90;;;;;;7272339;32;20193;-55
2023/03/31 17:18:20;;;;;;;4.65;0.68;;;11.10;99.90;;;;;;7280309;32;20629;-55
2023/03/31 17:22:22;;;;;;;5.10;0.65;;;11.10;99.90;;;;;;7280391;32;20165;-56
2023/03/31 17:26:25;;;;;;;4.35;0.90;;;11.00;99.90;;;;;;7276285;32;20120;-55
2023/03/31 17:30:27;;;;;;;2.83;0.60;;;10.90;99.90;;;;;;7285836;32;20284;-56
2023/03/31 17:34:29;;;;;;;3.37;0.82;;;10.90;99.90;;;;;;7280272;32;20202;-56
2023/03/31 17:38:31;;;;;;;5.03;0.65;;;10.80;99.90;;;;;;7280546;32;20755;-55
2023/03/31 17:42:33;;;;;;;5.55;1.02;;;10.70;99.90;;;;;;7272250;32;20216;-56
2023/03/31 17:46:35;;;;;;;3.67;0.85;;;10.60;99.90;;;;;;7279168;32;20193;-55
2023/03/31 17:50:37;;;;;;;3.97;0.90;;;10.50;99.90;;;;;;7275441;32;20112;-56
2023/03/31 17:54:39;;;;;;;7.75;1.02;;;10.40;99.90;;;;;;7272257;32;20203;-56
2023/03/31 17:58:41;;;;;;;7.22;1.25;;;10.30;99.90;;;;;;7277284;32;20941;-55
2023/03/31 18:02:43;;;;;;;4.45;0.80;;;10.30;99.90;;;;;;7278313;32;20104;-55
2023/03/31 18:06:47;;;;;;;5.53;0.90;;;10.40;99.90;;;;;;7273841;32;20565;-56
2023/03/31 18:10:49;;;;;;;9.90;1.23;;;10.30;99.90;;;;;;7275120;32;20107;-60
2023/03/31 18:14:51;;;;;;;3.87;1.10;;;10.60;99.90;;;;;;7278165;32;20317;-60
2023/03/31 18:18:53;;;;;;;4.20;1.10;;;10.80;99.90;;;;;;7270696;32;20121;-56
2023/03/31 18:22:54;;;;;;;5.30;1.55;;;10.70;99.90;;;;;;7277895;32;20179;-56
2023/03/31 18:26:56;;;;;;;4.00;0.88;;;10.60;99.90;;;;;;7273615;32;20648;-56
2023/03/31 18:31:02;;;;;;;4.80;0.70;;;10.50;99.90;;;;;;7273725;32;20112;-55
2023/03/31 18:35:05;;;;;;;3.58;0.90;;;10.40;99.90;;;;;;7273259;32;20104;-55
2023/03/31 18:39:07;;;;;;;4.97;0.90;;;10.40;99.90;;;;;;7279840;32;20214;-56
2023/03/31 18:43:10;;;;;;;5.25;1.02;;;10.40;99.90;;;;;;7273240;32;20799;-56
2023/03/31 18:47:12;;;;;;;3.58;0.65;;;10.40;99.90;;;;;;7270295;32;20119;-55
2023/03/31 18:51:14;;;;;;;3.83;0.70;;;10.40;99.90;;;;;;7271618;32;20544;-55
2023/03/31 18:55:17;;;;;;;4.03;0.60;;;10.40;99.90;;;;;;7273057;32;20608;-56
2023/03/31 18:59:19;;;;;;;4.72;1.50;;;10.50;99.90;;;;;;7273810;32;20180;-56
2023/03/31 19:03:21;;;;;;;3.35;0.55;;;10.60;99.90;;;;;;7274537;32;20121;-55
2023/03/31 19:07:23;;;;;;;1.92;0.60;;;10.60;99.90;;;;;;7265486;32;20159;-56
2023/03/31 19:11:26;;;;;;;3.62;0.80;;;10.60;99.90;;;;;;7284242;32;20167;-56
2023/03/31 19:15:27;;;;;;;3.72;0.73;;;10.70;99.90;;;;;;7277362;32;20180;-55
2023/03/31 19:19:30;;;;;;;6.18;1.73;;;10.60;99.90;;;;;;7285274;32;20119;-55
2023/03/31 19:23:32;;;;;;;5.10;1.23;;;10.70;99.90;;;;;;7280306;32;20545;-55
2023/03/31 19:27:34;;;;;;;1.67;0.60;;;10.60;99.90;;;;;;7278770;32;20120;-54
2023/03/31 19:31:40;;;;;;;4.72;1.05;;;10.70;99.90;;;;;;7275162;32;20249;-55
2023/03/31 19:35:44;;;;;;;4.37;1.12;;;10.60;99.90;;;;;;7276604;32;20112;-55
2023/03/31 19:39:46;;;;;;;4.05;0.80;;;10.60;99.90;;;;;;7280482;32;20634;-54
2023/03/31 19:43:48;;;;;;;4.18;1.05;;;10.60;99.90;;;;;;7281083;32;20466;-54
2023/03/31 19:47:50;;;;;;;4.97;1.00;;;10.60;99.90;;;;;;7283337;32;20099;-54
2023/03/31 19:51:52;;;;;;;3.35;0.68;;;10.60;99.90;;;;;;7281866;32;20155;-56
2023/03/31 19:56:03;;;;;;;2.17;0.90;;;10.60;99.90;;;;;;7281328;32;20187;-55
2023/03/31 20:00:06;;;;;;;6.75;0.80;;;10.60;99.90;;;;;;7281456;32;20114;-56
2023/03/31 20:04:09;;;;;;;6.80;1.00;;;10.60;99.90;;;;;;7275980;32;20824;-56
2023/03/31 20:08:11;;;;;;;7.82;1.08;;;10.60;99.90;;;;;;7290695;32;20631;-56
2023/03/31 20:12:13;;;;;;;6.20;1.08;;;10.50;99.90;;;;;;7284824;32;20173;-56
2023/03/31 20:16:22;;;;;;;10.05;1.12;;;10.50;99.90;;;;;;7273259;32;20665;-56
2023/03/31 20:20:24;;;;;;;6.10;0.90;;;10.50;99.90;;;;;;7285578;32;20127;-56
2023/03/31 20:24:26;;;;;;;3.12;0.70;;;10.40;99.90;;;;;;7286636;32;20808;-55
2023/03/31 20:28:29;;;;;;;3.20;0.75;;;10.40;99.90;;;;;;7287616;32;20101;-56
2023/03/31 20:32:31;;;;;;;4.85;0.70;;;10.40;99.90;;;;;;7289109;32;20177;-56
2023/03/31 20:36:33;;;;;;;5.35;0.60;;;10.40;99.90;;;;;;7282797;32;20214;-56
2023/03/31 20:40:35;;;;;;;3.90;0.80;;;10.40;99.90;;;;;;7284817;32;20273;-55
2023/03/31 20:44:37;;;;;;;4.78;0.75;;;10.40;99.90;;;;;;7282688;32;20775;-56
2023/03/31 20:48:41;;;;;;;4.82;0.75;;;10.40;99.90;;;;;;7282209;32;21225;-55
2023/03/31 20:52:46;;;;;;;6.97;0.95;;;10.40;99.90;;;;;;7288681;32;20132;-56
2023/03/31 20:56:49;;;;;;;5.05;1.00;;;10.30;99.90;;;;;;7275048;32;20112;-56
2023/03/31 21:00:56;;;;;;;7.55;0.88;;;10.30;99.90;;;;;;7283653;32;20191;-55
2023/03/31 21:04:58;;;;;;;3.35;0.90;;;10.20;99.90;;;;;;7283907;32;20557;-56
2023/03/31 21:09:00;;;;;;;2.83;0.62;;;10.10;99.90;;;;;;7279926;32;20220;-56
2023/03/31 21:13:02;;;;;;;4.95;1.00;;;10.10;99.90;;;;;;7265398;32;20476;-56
2023/03/31 21:17:03;;;;;;;10.07;1.40;;;10.00;99.90;;;;;;7281697;32;20825;-55
2023/03/31 21:21:08;;;;;;;5.65;0.90;;;10.00;99.90;;;;;;7284693;32;21037;-55
2023/03/31 21:25:10;;;;;;;6.95;0.93;;;10.00;99.90;;;;;;7277881;32;20146;-56